sensor_id;sensor_type;location;lat;lon;timestamp;P1;durP1;ratioP1;P2;durP2;ratioP2
81811;SDS011;71243;51.848;5.768;2023-08-12T00:00:48;16.70;;;7.95;;
81811;SDS011;71243;51.848;5.768;2023-08-12T00:03:13;15.68;;;8.10;;
81811;SDS011;71243;51.848;5.768;2023-08-12T00:05:39;15.23;;;8.10;;
81811;SDS011;71243;51.848;5.768;2023-08-12T00:08:04;17.93;;;7.77;;
81811;SDS011;71243;51.848;5.768;2023-08-12T00:10:29;16.55;;;7.90;;
81811;SDS011;71243;51.848;5.768;2023-08-12T00:12:55;14.77;;;7.63;;
81811;SDS011;71243;51.848;5.768;2023-08-12T00:15:20;14.87;;;7.60;;
81811;SDS011;71243;51.848;5.768;2023-08-12T00:17:45;15.45;;;8.73;;
81811;SDS011;71243;51.848;5.768;2023-08-12T00:20:12;14.68;;;8.40;;
81811;SDS011;71243;51.848;5.768;2023-08-12T00:22:37;15.38;;;7.50;;
81811;SDS011;71243;51.848;5.768;2023-08-12T00:25:03;17.50;;;9.18;;
81811;SDS011;71243;51.848;5.768;2023-08-12T00:27:28;17.55;;;8.40;;
81811;SDS011;71243;51.848;5.768;2023-08-12T00:29:54;17.27;;;8.02;;
81811;SDS011;71243;51.848;5.768;2023-08-12T00:32:19;17.90;;;8.83;;
81811;SDS011;71243;51.848;5.768;2023-08-12T00:34:44;14.73;;;8.43;;
81811;SDS011;71243;51.848;5.768;2023-08-12T00:37:09;16.17;;;8.47;;
81811;SDS011;71243;51.848;5.768;2023-08-12T00:39:35;19.40;;;9.32;;
81811;SDS011;71243;51.848;5.768;2023-08-12T00:42:00;18.20;;;10.07;;
81811;SDS011;71243;51.848;5.768;2023-08-12T00:44:25;18.23;;;10.27;;
81811;SDS011;71243;51.848;5.768;2023-08-12T00:46:51;17.90;;;10.07;;
81811;SDS011;71243;51.848;5.768;2023-08-12T00:49:16;18.90;;;10.63;;
81811;SDS011;71243;51.848;5.768;2023-08-12T00:51:42;19.63;;;11.25;;
81811;SDS011;71243;51.848;5.768;2023-08-12T00:54:11;17.83;;;9.23;;
81811;SDS011;71243;51.848;5.768;2023-08-12T00:56:39;20.80;;;9.50;;
81811;SDS011;71243;51.848;5.768;2023-08-12T00:59:05;21.25;;;11.23;;
81811;SDS011;71243;51.848;5.768;2023-08-12T01:01:33;21.23;;;11.55;;
81811;SDS011;71243;51.848;5.768;2023-08-12T01:03:58;17.52;;;9.00;;
81811;SDS011;71243;51.848;5.768;2023-08-12T01:06:24;21.92;;;10.40;;
81811;SDS011;71243;51.848;5.768;2023-08-12T01:08:49;22.60;;;11.50;;
81811;SDS011;71243;51.848;5.768;2023-08-12T01:11:24;17.42;;;9.93;;
81811;SDS011;71243;51.848;5.768;2023-08-12T01:14:01;20.10;;;11.35;;
81811;SDS011;71243;51.848;5.768;2023-08-12T01:16:40;23.90;;;10.98;;
81811;SDS011;71243;51.848;5.768;2023-08-12T01:19:16;21.02;;;11.65;;
81811;SDS011;71243;51.848;5.768;2023-08-12T01:21:52;19.90;;;10.45;;
81811;SDS011;71243;51.848;5.768;2023-08-12T01:24:19;22.88;;;11.30;;
81811;SDS011;71243;51.848;5.768;2023-08-12T01:26:46;21.17;;;11.13;;
81811;SDS011;71243;51.848;5.768;2023-08-12T01:29:11;23.27;;;11.38;;
81811;SDS011;71243;51.848;5.768;2023-08-12T01:31:42;21.85;;;11.73;;
81811;SDS011;71243;51.848;5.768;2023-08-12T01:34:20;23.30;;;11.38;;
81811;SDS011;71243;51.848;5.768;2023-08-12T01:37:11;20.65;;;11.30;;
81811;SDS011;71243;51.848;5.768;2023-08-12T01:39:39;20.08;;;11.30;;
81811;SDS011;71243;51.848;5.768;2023-08-12T01:42:06;22.77;;;12.70;;
81811;SDS011;71243;51.848;5.768;2023-08-12T01:44:31;19.52;;;11.50;;
81811;SDS011;71243;51.848;5.768;2023-08-12T01:46:57;23.42;;;11.38;;
81811;SDS011;71243;51.848;5.768;2023-08-12T01:49:22;23.10;;;11.95;;
81811;SDS011;71243;51.848;5.768;2023-08-12T01:51:47;21.90;;;11.80;;
81811;SDS011;71243;51.848;5.768;2023-08-12T01:54:12;24.67;;;12.48;;
81811;SDS011;71243;51.848;5.768;2023-08-12T01:56:38;22.33;;;10.87;;
81811;SDS011;71243;51.848;5.768;2023-08-12T01:59:03;23.33;;;10.77;;
81811;SDS011;71243;51.848;5.768;2023-08-12T02:01:28;19.92;;;10.93;;
81811;SDS011;71243;51.848;5.768;2023-08-12T02:03:54;24.03;;;11.43;;
81811;SDS011;71243;51.848;5.768;2023-08-12T02:06:19;20.13;;;11.88;;
81811;SDS011;71243;51.848;5.768;2023-08-12T02:08:44;23.23;;;12.93;;
81811;SDS011;71243;51.848;5.768;2023-08-12T02:11:09;20.80;;;12.13;;
81811;SDS011;71243;51.848;5.768;2023-08-12T02:13:34;22.90;;;13.17;;
81811;SDS011;71243;51.848;5.768;2023-08-12T02:16:00;25.03;;;12.10;;
81811;SDS011;71243;51.848;5.768;2023-08-12T02:18:25;21.90;;;11.80;;
81811;SDS011;71243;51.848;5.768;2023-08-12T02:20:50;23.07;;;11.93;;
81811;SDS011;71243;51.848;5.768;2023-08-12T02:23:15;23.92;;;13.40;;
81811;SDS011;71243;51.848;5.768;2023-08-12T02:25:41;23.38;;;13.23;;
81811;SDS011;71243;51.848;5.768;2023-08-12T02:28:06;24.73;;;13.53;;
81811;SDS011;71243;51.848;5.768;2023-08-12T02:30:31;26.30;;;13.67;;
81811;SDS011;71243;51.848;5.768;2023-08-12T02:32:56;21.27;;;11.27;;
81811;SDS011;71243;51.848;5.768;2023-08-12T02:35:22;23.97;;;12.63;;
81811;SDS011;71243;51.848;5.768;2023-08-12T02:37:50;27.02;;;11.70;;
81811;SDS011;71243;51.848;5.768;2023-08-12T02:40:15;24.42;;;12.80;;
81811;SDS011;71243;51.848;5.768;2023-08-12T02:42:41;21.23;;;12.38;;
81811;SDS011;71243;51.848;5.768;2023-08-12T02:45:06;25.30;;;13.55;;
81811;SDS011;71243;51.848;5.768;2023-08-12T02:47:31;25.13;;;15.02;;
81811;SDS011;71243;51.848;5.768;2023-08-12T02:49:57;21.63;;;12.50;;
81811;SDS011;71243;51.848;5.768;2023-08-12T02:52:22;24.95;;;13.07;;
81811;SDS011;71243;51.848;5.768;2023-08-12T02:54:47;27.08;;;13.57;;
81811;SDS011;71243;51.848;5.768;2023-08-12T02:57:13;25.17;;;13.40;;
81811;SDS011;71243;51.848;5.768;2023-08-12T02:59:38;26.42;;;12.65;;
81811;SDS011;71243;51.848;5.768;2023-08-12T03:02:03;23.38;;;13.20;;
81811;SDS011;71243;51.848;5.768;2023-08-12T03:04:29;24.23;;;13.85;;
81811;SDS011;71243;51.848;5.768;2023-08-12T03:06:54;26.52;;;12.93;;
81811;SDS011;71243;51.848;5.768;2023-08-12T03:09:19;23.35;;;12.38;;
81811;SDS011;71243;51.848;5.768;2023-08-12T03:11:44;22.95;;;13.05;;
81811;SDS011;71243;51.848;5.768;2023-08-12T03:14:10;22.33;;;12.90;;
81811;SDS011;71243;51.848;5.768;2023-08-12T03:16:35;26.38;;;13.82;;
81811;SDS011;71243;51.848;5.768;2023-08-12T03:19:00;26.80;;;13.07;;
81811;SDS011;71243;51.848;5.768;2023-08-12T03:21:25;22.27;;;12.67;;
81811;SDS011;71243;51.848;5.768;2023-08-12T03:23:51;23.88;;;13.00;;
81811;SDS011;71243;51.848;5.768;2023-08-12T03:26:16;25.90;;;13.70;;
81811;SDS011;71243;51.848;5.768;2023-08-12T03:28:41;23.33;;;12.23;;
81811;SDS011;71243;51.848;5.768;2023-08-12T03:31:06;24.77;;;12.90;;
81811;SDS011;71243;51.848;5.768;2023-08-12T03:33:32;20.23;;;10.67;;
81811;SDS011;71243;51.848;5.768;2023-08-12T03:35:57;21.50;;;12.80;;
81811;SDS011;71243;51.848;5.768;2023-08-12T03:38:22;20.75;;;11.88;;
81811;SDS011;71243;51.848;5.768;2023-08-12T03:40:47;21.17;;;12.30;;
81811;SDS011;71243;51.848;5.768;2023-08-12T03:43:14;22.85;;;12.18;;
81811;SDS011;71243;51.848;5.768;2023-08-12T03:45:40;20.48;;;11.40;;
81811;SDS011;71243;51.848;5.768;2023-08-12T03:48:08;20.27;;;12.98;;
81811;SDS011;71243;51.848;5.768;2023-08-12T03:50:34;21.13;;;11.02;;
81811;SDS011;71243;51.848;5.768;2023-08-12T03:53:00;20.38;;;12.32;;
81811;SDS011;71243;51.848;5.768;2023-08-12T03:55:26;21.83;;;11.20;;
81811;SDS011;71243;51.848;5.768;2023-08-12T03:57:51;25.35;;;13.25;;
81811;SDS011;71243;51.848;5.768;2023-08-12T04:00:16;20.50;;;10.53;;
81811;SDS011;71243;51.848;5.768;2023-08-12T04:02:41;18.27;;;11.18;;
81811;SDS011;71243;51.848;5.768;2023-08-12T04:05:07;21.00;;;11.03;;
81811;SDS011;71243;51.848;5.768;2023-08-12T04:07:32;22.92;;;10.52;;
81811;SDS011;71243;51.848;5.768;2023-08-12T04:09:57;22.97;;;11.03;;
81811;SDS011;71243;51.848;5.768;2023-08-12T04:12:22;20.93;;;11.70;;
81811;SDS011;71243;51.848;5.768;2023-08-12T04:14:48;21.65;;;11.55;;
81811;SDS011;71243;51.848;5.768;2023-08-12T04:17:13;19.33;;;10.00;;
81811;SDS011;71243;51.848;5.768;2023-08-12T04:19:38;18.83;;;10.37;;
81811;SDS011;71243;51.848;5.768;2023-08-12T04:22:03;19.67;;;10.67;;
81811;SDS011;71243;51.848;5.768;2023-08-12T04:24:28;22.17;;;10.40;;
81811;SDS011;71243;51.848;5.768;2023-08-12T04:26:54;21.63;;;10.52;;
81811;SDS011;71243;51.848;5.768;2023-08-12T04:29:19;20.17;;;10.52;;
81811;SDS011;71243;51.848;5.768;2023-08-12T04:31:44;17.65;;;9.80;;
81811;SDS011;71243;51.848;5.768;2023-08-12T04:34:09;19.97;;;10.03;;
81811;SDS011;71243;51.848;5.768;2023-08-12T04:36:35;22.17;;;10.85;;
81811;SDS011;71243;51.848;5.768;2023-08-12T04:39:00;23.98;;;10.85;;
81811;SDS011;71243;51.848;5.768;2023-08-12T04:41:25;20.85;;;9.38;;
81811;SDS011;71243;51.848;5.768;2023-08-12T04:43:50;18.50;;;10.38;;
81811;SDS011;71243;51.848;5.768;2023-08-12T04:46:16;19.67;;;11.50;;
81811;SDS011;71243;51.848;5.768;2023-08-12T04:48:41;21.60;;;10.80;;
81811;SDS011;71243;51.848;5.768;2023-08-12T04:51:06;19.05;;;9.90;;
81811;SDS011;71243;51.848;5.768;2023-08-12T04:53:31;21.93;;;10.73;;
81811;SDS011;71243;51.848;5.768;2023-08-12T04:55:57;18.60;;;10.55;;
81811;SDS011;71243;51.848;5.768;2023-08-12T04:58:22;23.00;;;10.33;;
81811;SDS011;71243;51.848;5.768;2023-08-12T05:00:47;18.48;;;9.35;;
81811;SDS011;71243;51.848;5.768;2023-08-12T05:03:13;20.50;;;11.48;;
81811;SDS011;71243;51.848;5.768;2023-08-12T05:05:38;19.23;;;10.03;;
81811;SDS011;71243;51.848;5.768;2023-08-12T05:08:03;20.50;;;10.47;;
81811;SDS011;71243;51.848;5.768;2023-08-12T05:10:28;16.48;;;10.48;;
81811;SDS011;71243;51.848;5.768;2023-08-12T05:12:54;21.97;;;9.60;;
81811;SDS011;71243;51.848;5.768;2023-08-12T05:15:22;20.63;;;10.73;;
81811;SDS011;71243;51.848;5.768;2023-08-12T05:17:47;22.27;;;11.37;;
81811;SDS011;71243;51.848;5.768;2023-08-12T05:20:12;18.42;;;10.30;;
81811;SDS011;71243;51.848;5.768;2023-08-12T05:22:38;18.58;;;10.52;;
81811;SDS011;71243;51.848;5.768;2023-08-12T05:25:03;18.90;;;9.10;;
81811;SDS011;71243;51.848;5.768;2023-08-12T05:27:29;17.20;;;8.80;;
81811;SDS011;71243;51.848;5.768;2023-08-12T05:29:54;20.38;;;9.93;;
81811;SDS011;71243;51.848;5.768;2023-08-12T05:32:19;16.30;;;8.77;;
81811;SDS011;71243;51.848;5.768;2023-08-12T05:34:44;18.35;;;8.35;;
81811;SDS011;71243;51.848;5.768;2023-08-12T05:37:10;16.00;;;7.18;;
81811;SDS011;71243;51.848;5.768;2023-08-12T05:39:35;16.08;;;7.65;;
81811;SDS011;71243;51.848;5.768;2023-08-12T05:42:00;19.00;;;8.82;;
81811;SDS011;71243;51.848;5.768;2023-08-12T05:44:25;20.33;;;10.23;;
81811;SDS011;71243;51.848;5.768;2023-08-12T05:46:51;17.38;;;9.35;;
81811;SDS011;71243;51.848;5.768;2023-08-12T05:49:16;16.73;;;9.37;;
81811;SDS011;71243;51.848;5.768;2023-08-12T05:51:41;16.55;;;8.50;;
81811;SDS011;71243;51.848;5.768;2023-08-12T05:54:06;15.88;;;7.60;;
81811;SDS011;71243;51.848;5.768;2023-08-12T05:56:32;13.88;;;6.60;;
81811;SDS011;71243;51.848;5.768;2023-08-12T05:58:57;17.08;;;8.15;;
81811;SDS011;71243;51.848;5.768;2023-08-12T06:01:22;17.20;;;7.10;;
81811;SDS011;71243;51.848;5.768;2023-08-12T06:03:47;14.98;;;6.90;;
81811;SDS011;71243;51.848;5.768;2023-08-12T06:06:13;16.10;;;7.90;;
81811;SDS011;71243;51.848;5.768;2023-08-12T06:08:38;15.15;;;7.72;;
81811;SDS011;71243;51.848;5.768;2023-08-12T06:11:03;16.40;;;8.55;;
81811;SDS011;71243;51.848;5.768;2023-08-12T06:13:28;13.77;;;7.20;;
81811;SDS011;71243;51.848;5.768;2023-08-12T06:15:54;14.68;;;6.90;;
81811;SDS011;71243;51.848;5.768;2023-08-12T06:18:19;16.60;;;7.77;;
81811;SDS011;71243;51.848;5.768;2023-08-12T06:20:44;14.85;;;8.63;;
81811;SDS011;71243;51.848;5.768;2023-08-12T06:23:09;16.73;;;8.00;;
81811;SDS011;71243;51.848;5.768;2023-08-12T06:25:35;14.60;;;7.67;;
81811;SDS011;71243;51.848;5.768;2023-08-12T06:28:00;13.00;;;6.90;;
81811;SDS011;71243;51.848;5.768;2023-08-12T06:30:25;15.27;;;7.63;;
81811;SDS011;71243;51.848;5.768;2023-08-12T06:32:50;15.52;;;7.50;;
81811;SDS011;71243;51.848;5.768;2023-08-12T06:35:16;16.57;;;7.83;;
81811;SDS011;71243;51.848;5.768;2023-08-12T06:37:41;12.00;;;7.03;;
81811;SDS011;71243;51.848;5.768;2023-08-12T06:40:06;13.97;;;6.27;;
81811;SDS011;71243;51.848;5.768;2023-08-12T06:42:32;12.93;;;6.18;;
81811;SDS011;71243;51.848;5.768;2023-08-12T06:44:58;11.77;;;5.88;;
81811;SDS011;71243;51.848;5.768;2023-08-12T06:47:24;11.50;;;6.22;;
81811;SDS011;71243;51.848;5.768;2023-08-12T06:49:49;12.05;;;5.75;;
81811;SDS011;71243;51.848;5.768;2023-08-12T06:52:14;13.73;;;6.53;;
81811;SDS011;71243;51.848;5.768;2023-08-12T06:54:40;11.70;;;6.55;;
81811;SDS011;71243;51.848;5.768;2023-08-12T06:57:05;12.52;;;6.53;;
81811;SDS011;71243;51.848;5.768;2023-08-12T06:59:30;12.32;;;5.65;;
81811;SDS011;71243;51.848;5.768;2023-08-12T07:01:56;11.60;;;6.47;;
81811;SDS011;71243;51.848;5.768;2023-08-12T07:04:21;13.67;;;6.37;;
81811;SDS011;71243;51.848;5.768;2023-08-12T07:06:46;13.50;;;6.50;;
81811;SDS011;71243;51.848;5.768;2023-08-12T07:09:12;12.02;;;6.35;;
81811;SDS011;71243;51.848;5.768;2023-08-12T07:11:38;11.02;;;5.63;;
81811;SDS011;71243;51.848;5.768;2023-08-12T07:14:03;12.00;;;5.93;;
81811;SDS011;71243;51.848;5.768;2023-08-12T07:16:29;11.57;;;6.05;;
81811;SDS011;71243;51.848;5.768;2023-08-12T07:18:54;11.02;;;6.05;;
81811;SDS011;71243;51.848;5.768;2023-08-12T07:21:19;9.70;;;5.50;;
81811;SDS011;71243;51.848;5.768;2023-08-12T07:23:44;11.80;;;6.40;;
81811;SDS011;71243;51.848;5.768;2023-08-12T07:26:10;10.02;;;5.38;;
81811;SDS011;71243;51.848;5.768;2023-08-12T07:28:35;11.75;;;5.88;;
81811;SDS011;71243;51.848;5.768;2023-08-12T07:31:01;10.88;;;5.60;;
81811;SDS011;71243;51.848;5.768;2023-08-12T07:33:26;10.95;;;4.90;;
81811;SDS011;71243;51.848;5.768;2023-08-12T07:35:51;12.10;;;6.40;;
81811;SDS011;71243;51.848;5.768;2023-08-12T07:38:16;10.93;;;5.80;;
81811;SDS011;71243;51.848;5.768;2023-08-12T07:40:42;9.68;;;5.20;;
81811;SDS011;71243;51.848;5.768;2023-08-12T07:43:07;11.52;;;4.97;;
81811;SDS011;71243;51.848;5.768;2023-08-12T07:45:32;9.67;;;4.43;;
81811;SDS011;71243;51.848;5.768;2023-08-12T07:47:58;10.48;;;4.40;;
81811;SDS011;71243;51.848;5.768;2023-08-12T07:50:23;9.32;;;5.13;;
81811;SDS011;71243;51.848;5.768;2023-08-12T07:52:48;9.77;;;5.40;;
81811;SDS011;71243;51.848;5.768;2023-08-12T07:55:13;8.63;;;4.40;;
81811;SDS011;71243;51.848;5.768;2023-08-12T07:57:39;10.05;;;4.60;;
81811;SDS011;71243;51.848;5.768;2023-08-12T08:00:04;8.80;;;4.15;;
81811;SDS011;71243;51.848;5.768;2023-08-12T08:02:30;8.68;;;3.92;;
81811;SDS011;71243;51.848;5.768;2023-08-12T08:04:55;8.27;;;3.88;;
81811;SDS011;71243;51.848;5.768;2023-08-12T08:07:21;9.03;;;4.33;;
81811;SDS011;71243;51.848;5.768;2023-08-12T08:09:46;7.90;;;3.78;;
81811;SDS011;71243;51.848;5.768;2023-08-12T08:12:11;8.48;;;4.30;;
81811;SDS011;71243;51.848;5.768;2023-08-12T08:14:36;8.73;;;3.92;;
81811;SDS011;71243;51.848;5.768;2023-08-12T08:17:02;9.05;;;4.53;;
81811;SDS011;71243;51.848;5.768;2023-08-12T08:19:28;7.95;;;4.10;;
81811;SDS011;71243;51.848;5.768;2023-08-12T08:21:53;7.60;;;3.88;;
81811;SDS011;71243;51.848;5.768;2023-08-12T08:24:18;8.82;;;4.35;;
81811;SDS011;71243;51.848;5.768;2023-08-12T08:26:43;8.40;;;4.23;;
81811;SDS011;71243;51.848;5.768;2023-08-12T08:29:09;8.10;;;4.50;;
81811;SDS011;71243;51.848;5.768;2023-08-12T08:31:34;8.32;;;4.20;;
81811;SDS011;71243;51.848;5.768;2023-08-12T08:33:59;7.27;;;3.97;;
81811;SDS011;71243;51.848;5.768;2023-08-12T08:36:24;8.43;;;4.10;;
81811;SDS011;71243;51.848;5.768;2023-08-12T08:38:50;8.13;;;3.55;;
81811;SDS011;71243;51.848;5.768;2023-08-12T08:41:15;6.93;;;3.63;;
81811;SDS011;71243;51.848;5.768;2023-08-12T08:43:41;7.40;;;3.70;;
81811;SDS011;71243;51.848;5.768;2023-08-12T08:46:07;7.13;;;3.33;;
81811;SDS011;71243;51.848;5.768;2023-08-12T08:48:33;6.43;;;3.20;;
81811;SDS011;71243;51.848;5.768;2023-08-12T08:50:59;5.82;;;2.83;;
81811;SDS011;71243;51.848;5.768;2023-08-12T08:53:25;7.38;;;3.28;;
81811;SDS011;71243;51.848;5.768;2023-08-12T08:55:50;6.47;;;3.33;;
81811;SDS011;71243;51.848;5.768;2023-08-12T08:58:17;6.22;;;3.05;;
81811;SDS011;71243;51.848;5.768;2023-08-12T09:00:43;6.25;;;3.13;;
81811;SDS011;71243;51.848;5.768;2023-08-12T09:03:09;7.20;;;3.17;;
81811;SDS011;71243;51.848;5.768;2023-08-12T09:05:35;6.55;;;3.05;;
81811;SDS011;71243;51.848;5.768;2023-08-12T09:08:01;6.93;;;2.90;;
81811;SDS011;71243;51.848;5.768;2023-08-12T09:10:28;6.93;;;3.30;;
81811;SDS011;71243;51.848;5.768;2023-08-12T09:12:55;6.85;;;3.40;;
81811;SDS011;71243;51.848;5.768;2023-08-12T09:15:20;6.10;;;3.17;;
81811;SDS011;71243;51.848;5.768;2023-08-12T09:17:46;6.47;;;2.78;;
81811;SDS011;71243;51.848;5.768;2023-08-12T09:20:11;5.97;;;2.70;;
81811;SDS011;71243;51.848;5.768;2023-08-12T09:22:37;5.95;;;2.10;;
81811;SDS011;71243;51.848;5.768;2023-08-12T09:25:02;4.38;;;1.60;;
81811;SDS011;71243;51.848;5.768;2023-08-12T09:27:29;4.30;;;1.63;;
81811;SDS011;71243;51.848;5.768;2023-08-12T09:29:56;4.72;;;1.50;;
81811;SDS011;71243;51.848;5.768;2023-08-12T09:32:21;4.80;;;1.80;;
81811;SDS011;71243;51.848;5.768;2023-08-12T09:34:53;4.88;;;1.80;;
81811;SDS011;71243;51.848;5.768;2023-08-12T09:37:20;10.50;;;2.15;;
81811;SDS011;71243;51.848;5.768;2023-08-12T09:39:47;5.32;;;2.00;;
81811;SDS011;71243;51.848;5.768;2023-08-12T09:42:13;5.25;;;1.95;;
81811;SDS011;71243;51.848;5.768;2023-08-12T09:44:39;4.50;;;1.60;;
81811;SDS011;71243;51.848;5.768;2023-08-12T09:47:07;4.97;;;1.60;;
81811;SDS011;71243;51.848;5.768;2023-08-12T09:49:33;4.68;;;1.77;;
81811;SDS011;71243;51.848;5.768;2023-08-12T09:51:59;5.80;;;1.75;;
81811;SDS011;71243;51.848;5.768;2023-08-12T09:54:28;4.50;;;1.50;;
81811;SDS011;71243;51.848;5.768;2023-08-12T09:56:56;4.47;;;1.80;;
81811;SDS011;71243;51.848;5.768;2023-08-12T09:59:23;5.40;;;2.10;;
81811;SDS011;71243;51.848;5.768;2023-08-12T10:01:50;4.65;;;1.85;;
81811;SDS011;71243;51.848;5.768;2023-08-12T10:04:17;5.07;;;1.83;;
81811;SDS011;71243;51.848;5.768;2023-08-12T10:06:43;4.80;;;2.05;;
81811;SDS011;71243;51.848;5.768;2023-08-12T10:09:09;10.40;;;2.75;;
81811;SDS011;71243;51.848;5.768;2023-08-12T10:11:35;6.65;;;2.75;;
81811;SDS011;71243;51.848;5.768;2023-08-12T10:14:01;5.70;;;2.73;;
81811;SDS011;71243;51.848;5.768;2023-08-12T10:16:29;6.78;;;2.90;;
81811;SDS011;71243;51.848;5.768;2023-08-12T10:18:55;6.78;;;3.10;;
81811;SDS011;71243;51.848;5.768;2023-08-12T10:21:22;5.88;;;2.92;;
81811;SDS011;71243;51.848;5.768;2023-08-12T10:23:47;6.00;;;2.60;;
81811;SDS011;71243;51.848;5.768;2023-08-12T10:26:14;6.78;;;2.88;;
81811;SDS011;71243;51.848;5.768;2023-08-12T10:28:40;7.30;;;3.05;;
81811;SDS011;71243;51.848;5.768;2023-08-12T10:31:05;5.82;;;2.60;;
81811;SDS011;71243;51.848;5.768;2023-08-12T10:33:35;7.53;;;2.70;;
81811;SDS011;71243;51.848;5.768;2023-08-12T10:36:01;6.18;;;2.70;;
81811;SDS011;71243;51.848;5.768;2023-08-12T10:38:28;8.20;;;3.72;;
81811;SDS011;71243;51.848;5.768;2023-08-12T10:40:55;6.78;;;3.35;;
81811;SDS011;71243;51.848;5.768;2023-08-12T10:43:53;8.77;;;4.10;;
81811;SDS011;71243;51.848;5.768;2023-08-12T10:49:02;8.13;;;3.58;;
81811;SDS011;71243;51.848;5.768;2023-08-12T10:54:30;7.43;;;3.45;;
81811;SDS011;71243;51.848;5.768;2023-08-12T11:02:16;7.75;;;2.80;;
81811;SDS011;71243;51.848;5.768;2023-08-12T11:04:42;6.57;;;3.00;;
81811;SDS011;71243;51.848;5.768;2023-08-12T11:07:41;8.40;;;2.78;;
81811;SDS011;71243;51.848;5.768;2023-08-12T11:10:04;7.15;;;2.38;;
81811;SDS011;71243;51.848;5.768;2023-08-12T11:15:01;7.78;;;2.35;;
81811;SDS011;71243;51.848;5.768;2023-08-12T11:17:38;11.88;;;2.33;;
81811;SDS011;71243;51.848;5.768;2023-08-12T11:20:05;6.68;;;2.10;;
81811;SDS011;71243;51.848;5.768;2023-08-12T11:22:33;5.85;;;2.10;;
81811;SDS011;71243;51.848;5.768;2023-08-12T11:25:00;5.68;;;2.28;;
81811;SDS011;71243;51.848;5.768;2023-08-12T11:27:26;6.18;;;2.25;;
81811;SDS011;71243;51.848;5.768;2023-08-12T11:29:51;5.73;;;2.07;;
81811;SDS011;71243;51.848;5.768;2023-08-12T11:32:17;6.32;;;1.95;;
81811;SDS011;71243;51.848;5.768;2023-08-12T11:34:43;5.13;;;1.83;;
81811;SDS011;71243;51.848;5.768;2023-08-12T11:37:08;6.65;;;1.70;;
81811;SDS011;71243;51.848;5.768;2023-08-12T11:39:34;6.45;;;1.90;;
81811;SDS011;71243;51.848;5.768;2023-08-12T11:41:59;8.00;;;1.95;;
81811;SDS011;71243;51.848;5.768;2023-08-12T11:44:24;7.28;;;1.50;;
81811;SDS011;71243;51.848;5.768;2023-08-12T11:46:50;5.25;;;1.80;;
81811;SDS011;71243;51.848;5.768;2023-08-12T11:49:15;7.82;;;1.50;;
81811;SDS011;71243;51.848;5.768;2023-08-12T11:51:41;7.07;;;1.50;;
81811;SDS011;71243;51.848;5.768;2023-08-12T11:54:08;5.32;;;1.73;;
81811;SDS011;71243;51.848;5.768;2023-08-12T11:56:34;4.65;;;1.35;;
81811;SDS011;71243;51.848;5.768;2023-08-12T11:59:00;7.53;;;1.65;;
81811;SDS011;71243;51.848;5.768;2023-08-12T12:01:25;5.22;;;1.20;;
81811;SDS011;71243;51.848;5.768;2023-08-12T12:03:51;6.55;;;1.23;;
81811;SDS011;71243;51.848;5.768;2023-08-12T12:06:17;5.65;;;1.40;;
81811;SDS011;71243;51.848;5.768;2023-08-12T12:08:43;5.47;;;1.60;;
81811;SDS011;71243;51.848;5.768;2023-08-12T12:11:09;8.23;;;1.75;;
81811;SDS011;71243;51.848;5.768;2023-08-12T12:13:35;6.00;;;1.80;;
81811;SDS011;71243;51.848;5.768;2023-08-12T12:16:00;7.87;;;1.90;;
81811;SDS011;71243;51.848;5.768;2023-08-12T12:18:25;4.87;;;1.83;;
81811;SDS011;71243;51.848;5.768;2023-08-12T12:23:19;5.93;;;1.35;;
81811;SDS011;71243;51.848;5.768;2023-08-12T12:25:45;6.82;;;1.52;;
81811;SDS011;71243;51.848;5.768;2023-08-12T12:28:10;6.63;;;1.50;;
81811;SDS011;71243;51.848;5.768;2023-08-12T12:30:35;7.15;;;1.55;;
81811;SDS011;71243;51.848;5.768;2023-08-12T12:33:01;7.38;;;1.63;;
81811;SDS011;71243;51.848;5.768;2023-08-12T12:35:26;8.32;;;1.52;;
81811;SDS011;71243;51.848;5.768;2023-08-12T12:37:52;6.75;;;1.73;;
81811;SDS011;71243;51.848;5.768;2023-08-12T12:40:17;6.17;;;1.50;;
81811;SDS011;71243;51.848;5.768;2023-08-12T12:42:42;5.97;;;1.80;;
81811;SDS011;71243;51.848;5.768;2023-08-12T12:45:07;6.33;;;1.40;;
81811;SDS011;71243;51.848;5.768;2023-08-12T12:47:33;6.45;;;1.63;;
81811;SDS011;71243;51.848;5.768;2023-08-12T12:49:58;7.30;;;1.57;;
81811;SDS011;71243;51.848;5.768;2023-08-12T12:52:24;8.05;;;1.52;;
81811;SDS011;71243;51.848;5.768;2023-08-12T12:54:49;8.20;;;1.48;;
81811;SDS011;71243;51.848;5.768;2023-08-12T12:57:14;7.25;;;1.55;;
81811;SDS011;71243;51.848;5.768;2023-08-12T12:59:40;5.20;;;1.40;;
81811;SDS011;71243;51.848;5.768;2023-08-12T13:02:05;8.93;;;1.50;;
81811;SDS011;71243;51.848;5.768;2023-08-12T13:04:30;6.43;;;1.40;;
81811;SDS011;71243;51.848;5.768;2023-08-12T13:06:55;6.13;;;1.47;;
81811;SDS011;71243;51.848;5.768;2023-08-12T13:09:21;10.00;;;1.50;;
81811;SDS011;71243;51.848;5.768;2023-08-12T13:11:46;7.65;;;1.80;;
81811;SDS011;71243;51.848;5.768;2023-08-12T13:14:11;5.37;;;1.43;;
81811;SDS011;71243;51.848;5.768;2023-08-12T13:16:36;8.80;;;1.42;;
81811;SDS011;71243;51.848;5.768;2023-08-12T13:19:02;7.77;;;1.90;;
81811;SDS011;71243;51.848;5.768;2023-08-12T13:21:27;7.53;;;1.35;;
81811;SDS011;71243;51.848;5.768;2023-08-12T13:23:53;5.13;;;1.30;;
81811;SDS011;71243;51.848;5.768;2023-08-12T13:26:19;5.60;;;1.08;;
81811;SDS011;71243;51.848;5.768;2023-08-12T13:28:45;6.30;;;1.58;;
81811;SDS011;71243;51.848;5.768;2023-08-12T13:31:11;9.48;;;1.90;;
81811;SDS011;71243;51.848;5.768;2023-08-12T13:33:36;8.03;;;2.27;;
81811;SDS011;71243;51.848;5.768;2023-08-12T13:36:01;4.87;;;1.40;;
81811;SDS011;71243;51.848;5.768;2023-08-12T13:38:27;6.72;;;1.95;;
81811;SDS011;71243;51.848;5.768;2023-08-12T13:40:52;5.22;;;1.40;;
81811;SDS011;71243;51.848;5.768;2023-08-12T13:43:17;7.60;;;1.65;;
81811;SDS011;71243;51.848;5.768;2023-08-12T13:45:42;5.57;;;1.60;;
81811;SDS011;71243;51.848;5.768;2023-08-12T13:48:08;7.25;;;1.50;;
81811;SDS011;71243;51.848;5.768;2023-08-12T13:50:33;4.75;;;1.35;;
81811;SDS011;71243;51.848;5.768;2023-08-12T13:52:58;5.65;;;1.30;;
81811;SDS011;71243;51.848;5.768;2023-08-12T13:55:24;6.75;;;1.40;;
81811;SDS011;71243;51.848;5.768;2023-08-12T13:57:50;7.60;;;1.42;;
81811;SDS011;71243;51.848;5.768;2023-08-12T14:00:15;7.03;;;1.40;;
81811;SDS011;71243;51.848;5.768;2023-08-12T14:02:41;7.22;;;1.55;;
81811;SDS011;71243;51.848;5.768;2023-08-12T14:05:06;7.05;;;1.77;;
81811;SDS011;71243;51.848;5.768;2023-08-12T14:07:32;6.40;;;1.80;;
81811;SDS011;71243;51.848;5.768;2023-08-12T14:09:58;7.93;;;1.88;;
81811;SDS011;71243;51.848;5.768;2023-08-12T14:12:23;8.48;;;2.03;;
81811;SDS011;71243;51.848;5.768;2023-08-12T14:14:49;7.72;;;1.65;;
81811;SDS011;71243;51.848;5.768;2023-08-12T14:17:14;9.40;;;1.90;;
81811;SDS011;71243;51.848;5.768;2023-08-12T14:19:40;8.25;;;1.90;;
81811;SDS011;71243;51.848;5.768;2023-08-12T14:22:05;8.05;;;1.60;;
81811;SDS011;71243;51.848;5.768;2023-08-12T14:24:30;7.20;;;2.05;;
81811;SDS011;71243;51.848;5.768;2023-08-12T14:26:56;7.83;;;2.43;;
81811;SDS011;71243;51.848;5.768;2023-08-12T14:29:21;6.27;;;1.90;;
81811;SDS011;71243;51.848;5.768;2023-08-12T14:31:46;9.93;;;1.65;;
81811;SDS011;71243;51.848;5.768;2023-08-12T14:34:11;7.27;;;1.83;;
81811;SDS011;71243;51.848;5.768;2023-08-12T14:36:36;7.95;;;1.77;;
81811;SDS011;71243;51.848;5.768;2023-08-12T14:39:02;6.83;;;1.67;;
81811;SDS011;71243;51.848;5.768;2023-08-12T14:41:27;6.75;;;1.48;;
81811;SDS011;71243;51.848;5.768;2023-08-12T14:43:52;8.07;;;1.73;;